Time;durP1;ratioP1;P1;durP2;ratioP2;P2;SDS_P1;SDS_P2;PMS_P1;PMS_P2;Temp;Humidity;BMP_temperature;BMP_pressure;BME280_temperature;BME280_humidity;BME280_pressure;Samples;Min_cycle;Max_cycle;Signal;HPM_P1;HPM_P2
2023/08/11 00:02:22;;;;;;;4.82;3.92;;;;;;;17.49;79.22;101931.03;4965163;28;20501;-93
2023/08/11 00:04:47;;;;;;;5.15;3.95;;;;;;;17.45;78.38;101922.41;4946952;28;20027;-91
2023/08/11 00:07:13;;;;;;;4.85;4.28;;;;;;;17.41;78.67;101924.28;4974014;28;20031;-93
2023/08/11 00:09:38;;;;;;;5.35;4.18;;;;;;;17.38;78.61;101923.53;4972014;28;20034;-91
2023/08/11 00:12:04;;;;;;;5.22;4.32;;;;;;;17.34;78.74;101917.53;4974754;28;20022;-93
2023/08/11 00:14:29;;;;;;;6.68;4.80;;;;;;;17.32;78.80;101913.25;4973655;28;20084;-93
2023/08/11 00:16:56;;;;;;;5.70;4.68;;;;;;;17.28;79.69;101918.63;4971130;28;20015;-91
2023/08/11 00:19:21;;;;;;;5.35;4.32;;;;;;;17.26;80.41;101919.56;4961884;28;20027;-92
2023/08/11 00:21:46;;;;;;;5.03;4.28;;;;;;;17.25;78.95;101918.72;4972483;28;20026;-91
2023/08/11 00:24:12;;;;;;;6.10;4.63;;;;;;;17.23;79.30;101914.44;4971815;28;20027;-92
2023/08/11 00:26:37;;;;;;;6.00;4.57;;;;;;;17.20;80.40;101925.06;4969328;28;20030;-93
2023/08/11 00:29:02;;;;;;;5.90;4.47;;;;;;;17.18;80.48;101921.66;4971589;28;20022;-93
2023/08/11 00:31:28;;;;;;;6.60;4.20;;;;;;;17.17;81.39;101920.78;4969574;28;20023;-93
2023/08/11 00:33:53;;;;;;;4.93;4.20;;;;;;;17.19;82.19;101912.84;4968920;28;20022;-90
2023/08/11 00:36:19;;;;;;;6.15;4.13;;;;;;;17.17;81.49;101920.78;4959851;28;20467;-90
2023/08/11 00:38:44;;;;;;;4.95;4.35;;;;;;;17.16;81.25;101912.94;4967275;28;20026;-91
2023/08/11 00:41:10;;;;;;;6.25;4.35;;;;;;;17.14;81.91;101905.97;4982812;28;20049;-89
2023/08/11 00:43:36;;;;;;;6.70;4.85;;;;;;;17.14;79.96;101905.97;4979831;28;20505;-91
2023/08/11 00:46:08;;;;;;;5.90;4.65;;;;;;;17.10;81.60;101909.63;4987052;28;20062;-91
2023/08/11 00:48:34;;;;;;;5.47;4.53;;;;;;;17.08;82.11;101914.06;4978591;28;20105;-92
2023/08/11 00:51:00;;;;;;;7.20;4.45;;;;;;;17.06;81.66;101913.28;4980197;28;20519;-93
2023/08/11 00:53:25;;;;;;;6.65;4.75;;;;;;;17.03;81.76;101913.41;4988234;28;20057;-93
2023/08/11 00:55:51;;;;;;;6.20;4.55;;;;;;;17.00;80.77;101903.00;4989368;28;20121;-92
2023/08/11 00:58:17;;;;;;;6.30;4.63;;;;;;;16.98;80.37;101899.56;4983152;28;20041;-91
2023/08/11 01:00:43;;;;;;;6.35;5.40;;;;;;;16.93;80.15;101890.94;4984103;28;20061;-91
2023/08/11 01:03:09;;;;;;;7.43;5.35;;;;;;;16.88;81.04;101885.84;4984776;28;20069;-91
2023/08/11 01:05:43;;;;;;;7.07;5.28;;;;;;;16.84;82.44;101890.38;4957870;28;20050;-92
2023/08/11 01:08:24;;;;;;;6.28;4.78;;;;;;;16.84;81.08;101882.47;4982588;28;20619;-88
2023/08/11 01:11:07;;;;;;;5.65;5.03;;;;;;;16.82;80.56;101884.28;4997925;28;20023;-91
2023/08/11 01:13:38;;;;;;;9.85;5.90;;;;;;;16.81;81.22;101876.47;4957115;28;20190;-90
2023/08/11 01:16:04;;;;;;;6.82;5.53;;;;;;;16.79;82.53;101889.66;4974590;28;20394;-89
2023/08/11 01:18:30;;;;;;;7.22;4.82;;;;;;;16.77;81.69;101875.72;4987417;28;20026;-91
2023/08/11 01:21:05;;;;;;;7.65;5.45;;;;;;;16.78;82.01;101876.59;4993387;28;20485;-92
2023/08/11 01:23:31;;;;;;;6.45;5.55;;;;;;;16.77;82.33;101875.72;4993236;28;20022;-91
2023/08/11 01:25:57;;;;;;;5.47;4.93;;;;;;;16.77;82.58;101869.59;4992758;28;20030;-93
2023/08/11 01:28:22;;;;;;;5.80;4.90;;;;;;;16.74;82.03;101870.56;4989947;28;20052;-92
2023/08/11 01:30:48;;;;;;;6.65;5.25;;;;;;;16.73;82.24;101863.63;4991816;28;20389;-92
2023/08/11 01:33:14;;;;;;;7.85;5.40;;;;;;;16.72;82.79;101864.53;4991800;28;20543;-93
2023/08/11 01:35:40;;;;;;;7.20;5.75;;;;;;;16.71;82.25;101867.19;4992566;28;20037;-92
2023/08/11 01:38:06;;;;;;;6.28;5.55;;;;;;;16.69;82.59;101862.00;4991599;28;20105;-93
2023/08/11 01:40:31;;;;;;;6.57;5.53;;;;;;;16.69;82.61;101859.38;4985826;28;20089;-92
2023/08/11 01:43:00;;;;;;;7.93;5.30;;;;;;;16.68;81.96;101861.13;4990933;28;20526;-93
2023/08/11 01:45:27;;;;;;;7.57;5.63;;;;;;;16.66;81.96;101867.34;4988146;28;20501;-91
2023/08/11 01:47:53;;;;;;;8.27;5.88;;;;;;;16.62;82.48;101855.22;4983601;28;20035;-92
2023/08/11 01:50:19;;;;;;;6.13;4.93;;;;;;;16.60;82.86;101857.06;4991502;28;20109;-93
2023/08/11 01:52:47;;;;;;;6.53;5.53;;;;;;;16.58;83.40;101865.00;4991056;28;20102;-92
2023/08/11 01:55:13;;;;;;;6.47;5.82;;;;;;;16.58;83.21;101867.63;4987633;28;20026;-93
2023/08/11 01:57:40;;;;;;;8.52;6.00;;;;;;;16.57;83.59;101867.69;4990574;28;20101;-92
2023/08/11 02:00:09;;;;;;;7.28;5.93;;;;;;;16.56;82.67;101860.72;4990745;28;20054;-90
2023/08/11 02:02:35;;;;;;;7.68;5.88;;;;;;;16.52;82.41;101860.81;4992048;28;20109;-91
2023/08/11 02:05:01;;;;;;;6.90;5.93;;;;;;;16.50;81.95;101867.00;4972720;28;20129;-93
2023/08/11 02:07:26;;;;;;;8.38;6.30;;;;;;;16.44;81.86;101862.84;4989862;28;20072;-91
2023/08/11 02:09:54;;;;;;;8.38;6.72;;;;;;;16.39;81.87;101865.63;4989401;28;20058;-92
2023/08/11 02:12:20;;;;;;;7.13;6.22;;;;;;;16.36;81.89;101857.00;4992085;28;20022;-93
2023/08/11 02:14:45;;;;;;;7.38;6.18;;;;;;;16.34;82.41;101856.19;4991809;28;20022;-92
2023/08/11 02:17:10;;;;;;;8.25;6.57;;;;;;;16.31;81.68;101851.03;4992422;28;20511;-92
2023/08/11 02:19:35;;;;;;;8.60;6.75;;;;;;;16.27;82.37;101852.03;4989403;28;20109;-92
2023/08/11 02:22:01;;;;;;;9.57;7.10;;;;;;;16.24;82.22;101845.97;4988705;28;20053;-93
2023/08/11 02:24:26;;;;;;;8.70;7.00;;;;;;;16.22;82.88;101842.56;4987714;28;20109;-92
2023/08/11 02:26:51;;;;;;;8.52;6.85;;;;;;;16.21;83.25;101848.72;4987918;28;20035;-92
2023/08/11 02:29:16;;;;;;;7.93;6.47;;;;;;;16.19;83.42;101845.31;4984961;28;20069;-94
2023/08/11 02:31:42;;;;;;;8.38;6.50;;;;;;;16.18;84.09;101843.59;4982790;28;20034;-92
2023/08/11 02:34:07;;;;;;;7.80;6.18;;;;;;;16.15;83.72;101841.06;4986665;28;20023;-89
2023/08/11 02:36:32;;;;;;;7.32;6.00;;;;;;;16.15;84.03;101835.81;4987570;28;20030;-90
2023/08/11 02:38:57;;;;;;;8.90;6.22;;;;;;;16.14;84.06;101838.50;4991560;28;20400;-89
2023/08/11 02:41:23;;;;;;;7.28;6.30;;;;;;;16.14;84.55;101839.34;4987819;28;20513;-94
2023/08/11 02:43:48;;;;;;;8.15;6.60;;;;;;;16.14;84.09;101841.97;4978947;28;20026;-92
2023/08/11 02:46:13;;;;;;;7.88;6.03;;;;;;;16.14;84.15;101841.13;4981852;28;20493;-92
2023/08/11 02:48:39;;;;;;;8.15;6.47;;;;;;;16.13;84.42;101840.25;4985509;28;20030;-92
2023/08/11 02:51:05;;;;;;;7.95;6.75;;;;;;;16.12;83.80;101841.16;4989359;28;20497;-93
2023/08/11 02:53:31;;;;;;;7.93;6.38;;;;;;;16.13;84.02;101847.28;4993711;28;20030;-93
2023/08/11 02:55:56;;;;;;;8.70;6.38;;;;;;;16.10;84.24;101853.47;4995009;28;20026;-93
2023/08/11 02:58:22;;;;;;;9.00;7.00;;;;;;;16.10;83.07;101850.00;4987121;28;20026;-92
2023/08/11 03:00:48;;;;;;;8.95;7.43;;;;;;;16.07;83.04;101853.56;4990177;28;20100;-92
2023/08/11 03:03:14;;;;;;;10.07;7.45;;;;;;;16.03;84.70;101857.22;4990010;28;20030;-93
2023/08/11 03:05:41;;;;;;;10.10;7.38;;;;;;;16.01;85.29;101853.78;4985944;28;20508;-93
2023/08/11 03:08:07;;;;;;;9.10;7.68;;;;;;;16.00;84.41;101857.31;4984262;28;20026;-93
2023/08/11 03:10:32;;;;;;;10.68;8.65;;;;;;;16.00;84.65;101858.16;4985907;28;20022;-92
2023/08/11 03:12:58;;;;;;;10.05;7.93;;;;;;;16.00;85.09;101852.91;4985216;28;20397;-91
2023/08/11 03:15:23;;;;;;;8.07;7.28;;;;;;;15.99;84.65;101856.44;4988783;28;20089;-92
2023/08/11 03:17:49;;;;;;;8.90;7.65;;;;;;;15.98;84.43;101851.25;4991155;28;20026;-93
2023/08/11 03:20:18;;;;;;;9.70;8.07;;;;;;;15.93;84.51;101857.50;4976631;28;20031;-92
2023/08/11 03:22:44;;;;;;;10.52;8.88;;;;;;;15.88;83.35;101848.94;4986197;28;20018;-91
2023/08/11 03:25:11;;;;;;;11.13;9.52;;;;;;;15.83;83.72;101842.94;4985780;28;20098;-87
2023/08/11 03:27:39;;;;;;;11.38;9.48;;;;;;;15.78;83.89;101844.84;5017636;28;20029;-93
2023/08/11 03:30:06;;;;;;;10.70;9.43;;;;;;;15.74;84.50;101848.44;4963313;28;20027;-93
2023/08/11 03:32:31;;;;;;;13.77;9.68;;;;;;;15.70;84.49;101844.22;4984906;28;20027;-92
2023/08/11 03:34:56;;;;;;;13.27;9.43;;;;;;;15.68;84.34;101843.41;4991698;28;20031;-93
2023/08/11 03:37:22;;;;;;;13.32;9.85;;;;;;;15.65;84.36;101846.97;4983956;28;20478;-93
2023/08/11 03:39:47;;;;;;;12.90;9.65;;;;;;;15.60;85.08;101839.25;4992342;28;20054;-92
2023/08/11 03:42:12;;;;;;;10.35;8.95;;;;;;;15.59;85.24;101837.53;4994422;28;20019;-93
2023/08/11 03:44:38;;;;;;;10.13;8.77;;;;;;;15.58;84.66;101848.09;4993179;28;20022;-92
2023/08/11 03:47:05;;;;;;;10.63;8.60;;;;;;;15.56;85.40;101845.50;4992482;28;20045;-91
2023/08/11 03:49:31;;;;;;;10.82;8.13;;;;;;;15.53;85.87;101836.88;4972577;28;20022;-91
2023/08/11 03:51:57;;;;;;;9.00;7.35;;;;;;;15.49;85.82;101841.34;4982265;28;20364;-92
2023/08/11 03:54:22;;;;;;;8.18;7.38;;;;;;;15.46;86.52;101836.19;4985261;28;20053;-92
2023/08/11 03:56:47;;;;;;;7.65;6.65;;;;;;;15.41;86.47;101838.09;4985939;28;20033;-92
2023/08/11 03:59:13;;;;;;;8.82;7.07;;;;;;;15.37;86.70;101837.34;4976641;28;20023;-93
2023/08/11 04:01:38;;;;;;;8.88;7.18;;;;;;;15.33;86.40;101836.56;4985204;28;20035;-91
2023/08/11 04:04:04;;;;;;;8.80;7.22;;;;;;;15.31;86.66;101837.50;4984806;28;20081;-91
2023/08/11 04:06:32;;;;;;;8.75;7.10;;;;;;;15.31;86.76;101832.25;4981126;28;20109;-91
2023/08/11 04:08:59;;;;;;;8.48;6.88;;;;;;;15.31;86.80;101837.50;4982084;28;20101;-91
2023/08/11 04:11:25;;;;;;;8.70;7.53;;;;;;;15.30;86.30;101831.41;4984897;28;20042;-93
2023/08/11 04:13:50;;;;;;;8.55;7.45;;;;;;;15.29;86.91;101834.06;4991000;28;20042;-92
2023/08/11 04:16:15;;;;;;;8.75;6.97;;;;;;;15.29;86.15;101829.69;4990864;28;20018;-92
2023/08/11 04:18:41;;;;;;;9.48;7.78;;;;;;;15.26;86.50;101828.94;4994493;28;20101;-92
2023/08/11 04:21:06;;;;;;;9.90;7.88;;;;;;;15.23;87.18;101836.88;4983204;28;20040;-91
2023/08/11 04:23:31;;;;;;;9.23;7.25;;;;;;;15.23;87.12;101842.13;4991511;28;20485;-93
2023/08/11 04:25:57;;;;;;;8.75;7.63;;;;;;;15.23;87.12;101839.50;4986005;28;20030;-93
2023/08/11 04:28:22;;;;;;;8.55;7.65;;;;;;;15.23;86.92;101834.28;4991414;28;20502;-94
2023/08/11 04:30:47;;;;;;;8.68;7.28;;;;;;;15.23;87.26;101831.66;4989866;28;20033;-91
2023/08/11 04:33:12;;;;;;;8.32;6.95;;;;;;;15.22;86.87;101837.78;4986339;28;20027;-92
2023/08/11 04:35:38;;;;;;;8.65;7.13;;;;;;;15.21;86.97;101842.16;4979953;28;20099;-93
2023/08/11 04:38:04;;;;;;;8.38;6.80;;;;;;;15.22;87.13;101836.00;4991805;28;20038;-94
2023/08/11 04:40:29;;;;;;;8.85;7.30;;;;;;;15.23;86.66;101840.34;4978013;28;20054;-94
2023/08/11 04:42:55;;;;;;;9.27;7.70;;;;;;;15.22;86.02;101840.41;4969490;28;20075;-93
2023/08/11 04:45:21;;;;;;;9.10;7.97;;;;;;;15.19;86.34;101838.75;4969341;28;20097;-93
2023/08/11 04:47:46;;;;;;;10.77;8.20;;;;;;;15.16;87.03;101838.84;4965017;28;20157;-93
2023/08/11 04:50:12;;;;;;;11.25;8.48;;;;;;;15.15;87.15;101835.34;4965041;28;20038;-93
2023/08/11 04:52:37;;;;;;;8.50;7.18;;;;;;;15.17;87.36;101830.06;4966558;28;20172;-94
2023/08/11 04:55:04;;;;;;;9.25;7.38;;;;;;;15.20;87.62;101834.34;4967794;28;20034;-92
2023/08/11 04:57:29;;;;;;;10.35;7.95;;;;;;;15.22;88.13;101822.06;4967708;28;20014;-94
2023/08/11 04:59:55;;;;;;;9.88;7.97;;;;;;;15.25;87.53;101822.81;4967963;28;20034;-93
2023/08/11 05:02:20;;;;;;;10.57;7.88;;;;;;;15.26;87.44;101824.53;4978220;28;20054;-94
2023/08/11 05:04:46;;;;;;;11.45;8.25;;;;;;;15.27;87.51;101821.03;4966536;28;20027;-92
2023/08/11 05:07:11;;;;;;;11.88;8.73;;;;;;;15.27;87.45;101826.25;4963457;28;20026;-93
2023/08/11 05:09:36;;;;;;;10.75;9.65;;;;;;;15.28;87.40;101816.66;4965501;28;20390;-92
2023/08/11 05:12:02;;;;;;;11.68;10.20;;;;;;;15.29;88.11;101813.97;4965136;28;20031;-91
2023/08/11 05:14:27;;;;;;;15.50;11.90;;;;;;;15.31;88.13;101812.16;4964559;28;20027;-92
2023/08/11 05:16:53;;;;;;;14.23;11.45;;;;;;;15.33;88.22;101805.13;4989758;28;20034;-93
2023/08/11 05:19:18;;;;;;;13.45;11.50;;;;;;;15.38;88.43;101806.72;4966955;28;20175;-91
2023/08/11 05:21:44;;;;;;;12.23;10.73;;;;;;;15.42;88.76;101805.72;4967432;28;20113;-91
2023/08/11 05:24:10;;;;;;;12.35;10.02;;;;;;;15.47;88.94;101811.69;4972934;28;20025;-91
2023/08/11 05:26:36;;;;;;;12.43;9.98;;;;;;;15.52;89.29;101809.78;4968607;28;20029;-90
2023/08/11 05:29:01;;;;;;;13.52;9.38;;;;;;;15.56;89.71;101806.16;4973040;28;20031;-93
2023/08/11 05:31:26;;;;;;;12.60;9.40;;;;;;;15.61;89.38;101801.63;4971558;28;21130;-91
2023/08/11 05:33:52;;;;;;;10.60;8.82;;;;;;;15.65;89.29;101804.16;4982139;28;20030;-88
2023/08/11 05:36:18;;;;;;;12.43;8.88;;;;;;;15.69;89.33;101805.78;4997981;28;20031;-88
2023/08/11 05:38:43;;;;;;;12.45;9.25;;;;;;;15.71;89.26;101803.97;4987637;28;20031;-90
2023/08/11 05:41:09;;;;;;;12.40;8.40;;;;;;;15.75;89.37;101803.81;4973993;28;20341;-91
2023/08/11 05:43:36;;;;;;;13.30;8.43;;;;;;;15.80;88.90;101803.66;4971616;28;20026;-92
2023/08/11 05:46:02;;;;;;;11.57;8.65;;;;;;;15.87;88.79;101804.34;4967724;28;20028;-93
2023/08/11 05:48:27;;;;;;;10.73;8.30;;;;;;;15.91;88.82;101806.81;4966656;28;20033;-91
2023/08/11 05:50:53;;;;;;;11.13;8.20;;;;;;;15.95;88.88;101802.34;4977621;28;20030;-94
2023/08/11 05:53:20;;;;;;;10.60;8.40;;;;;;;15.99;88.44;101801.31;4975318;28;20064;-92
2023/08/11 05:55:45;;;;;;;13.30;8.40;;;;;;;16.04;89.00;101799.41;4971759;28;20397;-92
2023/08/11 05:58:10;;;;;;;10.88;8.00;;;;;;;16.10;89.28;101798.34;4973522;28;20110;-93
2023/08/11 06:00:36;;;;;;;10.60;8.02;;;;;;;16.17;89.29;101799.84;4972626;28;20484;-92
2023/08/11 06:03:01;;;;;;;12.32;8.07;;;;;;;16.21;88.96;101808.47;4973585;28;20027;-94
2023/08/11 06:05:27;;;;;;;10.48;8.05;;;;;;;16.24;88.77;101803.97;4969567;28;20382;-94
2023/08/11 06:07:53;;;;;;;11.52;8.30;;;;;;;16.30;88.85;101804.69;4980929;28;20038;-94
2023/08/11 06:10:18;;;;;;;10.60;7.78;;;;;;;16.35;88.98;101805.38;4974982;28;20034;-94
2023/08/11 06:12:43;;;;;;;10.20;7.72;;;;;;;16.38;88.78;101797.41;4973923;28;20106;-92
2023/08/11 06:15:09;;;;;;;14.57;8.30;;;;;;;16.43;88.66;101805.97;4958076;28;20046;-92
2023/08/11 06:17:36;;;;;;;12.43;8.48;;;;;;;16.47;89.27;101799.69;4976645;28;20639;-92
2023/08/11 06:20:02;;;;;;;9.60;7.72;;;;;;;16.51;88.94;101801.31;4972242;28;20026;-92
2023/08/11 06:22:27;;;;;;;10.98;8.00;;;;;;;16.58;89.09;101801.06;4972243;28;20129;-91
2023/08/11 06:24:52;;;;;;;10.00;7.80;;;;;;;16.65;89.52;101802.59;4974067;28;20121;-89
2023/08/11 06:27:18;;;;;;;10.77;8.25;;;;;;;16.71;89.02;101807.63;4975511;28;20106;-91
2023/08/11 06:29:43;;;;;;;10.52;8.18;;;;;;;16.76;89.08;101810.94;4972547;28;20042;-92
2023/08/11 06:32:08;;;;;;;10.73;8.02;;;;;;;16.81;89.40;101809.00;4973988;28;20113;-93
2023/08/11 06:34:33;;;;;;;11.00;8.38;;;;;;;16.89;89.32;101815.75;4975186;28;20085;-90
2023/08/11 06:36:59;;;;;;;11.15;7.97;;;;;;;16.95;89.55;101815.53;4980033;28;20041;-92
2023/08/11 06:39:24;;;;;;;10.45;7.72;;;;;;;17.02;89.43;101811.78;4989558;28;20035;-91
2023/08/11 06:41:49;;;;;;;11.13;7.68;;;;;;;17.07;88.43;101808.97;4988662;28;20565;-93
2023/08/11 06:44:15;;;;;;;10.98;7.97;;;;;;;17.13;88.80;101814.84;4977951;28;20030;-93
2023/08/11 06:46:40;;;;;;;11.43;7.95;;;;;;;17.19;88.76;101808.50;4986925;28;20046;-92
2023/08/11 06:49:06;;;;;;;14.73;8.60;;;;;;;17.25;88.44;101807.44;4990697;28;20805;-93
2023/08/11 06:51:31;;;;;;;10.77;7.85;;;;;;;17.30;89.13;101813.34;4992615;28;20040;-93
2023/08/11 06:53:56;;;;;;;11.38;8.05;;;;;;;17.37;88.97;101817.47;4993495;28;20390;-92
2023/08/11 06:56:22;;;;;;;11.25;7.45;;;;;;;17.42;87.71;101820.75;4989801;28;20093;-90
2023/08/11 06:58:47;;;;;;;12.00;7.97;;;;;;;17.50;88.74;101828.38;4994922;28;20405;-90
2023/08/11 07:01:14;;;;;;;12.35;7.80;;;;;;;17.56;88.37;101822.84;4985890;28;20376;-89
2023/08/11 07:03:40;;;;;;;10.07;7.85;;;;;;;17.64;88.54;101827.81;4983935;28;20027;-91
2023/08/11 07:06:05;;;;;;;11.95;7.78;;;;;;;17.72;89.44;101825.75;4992002;28;20038;-91
2023/08/11 07:08:30;;;;;;;9.48;6.93;;;;;;;17.81;89.01;101828.91;4991594;28;20034;-91
2023/08/11 07:10:56;;;;;;;10.73;7.28;;;;;;;17.89;88.52;101837.38;4992226;28;20125;-89
2023/08/11 07:13:21;;;;;;;10.80;7.15;;;;;;;17.96;86.32;101836.19;4990056;28;20054;-93
2023/08/11 07:15:46;;;;;;;10.52;7.03;;;;;;;18.01;86.45;101836.88;4984912;28;20034;-91
2023/08/11 07:18:13;;;;;;;9.23;7.05;;;;;;;18.08;85.47;101834.00;4986477;28;20034;-91
2023/08/11 07:20:42;;;;;;;9.75;6.82;;;;;;;18.13;85.08;101832.03;4985551;28;20054;-91
2023/08/11 07:23:08;;;;;;;9.90;6.70;;;;;;;18.19;85.30;101829.97;4978754;28;20054;-91
2023/08/11 07:25:33;;;;;;;9.18;6.65;;;;;;;18.26;86.53;101833.25;4984316;28;20038;-92
2023/08/11 07:27:58;;;;;;;10.15;6.78;;;;;;;18.30;85.07;101832.16;4993663;28;20410;-91
2023/08/11 07:30:24;;;;;;;10.40;6.97;;;;;;;18.37;85.41;101824.84;4985298;28;20030;-92
2023/08/11 07:32:49;;;;;;;10.45;7.03;;;;;;;18.42;84.65;101833.44;4993964;28;20500;-93
2023/08/11 07:35:14;;;;;;;12.10;7.28;;;;;;;18.48;84.32;101834.94;4986950;28;20023;-93
2023/08/11 07:37:40;;;;;;;10.57;6.97;;;;;;;18.52;83.89;101823.34;4994579;28;20030;-91
2023/08/11 07:40:06;;;;;;;8.57;6.47;;;;;;;18.58;84.74;101825.72;4989009;28;20046;-92
2023/08/11 07:42:31;;;;;;;8.80;6.35;;;;;;;18.65;84.37;101835.06;4990072;28;20057;-92
2023/08/11 07:44:57;;;;;;;9.10;6.28;;;;;;;18.72;83.18;101832.16;4988494;28;20474;-90
2023/08/11 07:47:22;;;;;;;10.15;6.22;;;;;;;18.77;82.77;101831.03;4990400;28;20441;-91
2023/08/11 07:49:47;;;;;;;9.18;6.40;;;;;;;18.86;83.37;101827.13;4988863;28;20022;-92
2023/08/11 07:52:13;;;;;;;9.85;6.28;;;;;;;18.91;82.32;101832.19;4985146;28;20532;-92
2023/08/11 07:54:38;;;;;;;9.60;5.93;;;;;;;18.98;82.65;101827.50;4988302;28;20076;-92
2023/08/11 07:57:04;;;;;;;8.77;5.97;;;;;;;19.06;83.22;101822.75;4987995;28;20101;-93
2023/08/11 07:59:29;;;;;;;9.77;5.90;;;;;;;19.10;81.03;101827.81;4990887;28;20038;-90
2023/08/11 08:01:54;;;;;;;8.98;5.22;;;;;;;19.18;81.81;101830.09;4983141;28;20077;-91
2023/08/11 08:04:20;;;;;;;7.70;5.45;;;;;;;19.25;82.17;101834.16;4982202;28;20027;-89
2023/08/11 08:06:45;;;;;;;8.60;5.22;;;;;;;19.34;81.90;101832.00;4986543;28;20390;-90
2023/08/11 08:09:14;;;;;;;8.25;5.10;;;;;;;19.41;82.56;101834.28;4986766;28;20022;-92
2023/08/11 08:11:45;;;;;;;8.15;4.93;;;;;;;19.48;81.51;101836.66;4985455;28;20360;-92
2023/08/11 08:14:11;;;;;;;7.43;5.30;;;;;;;19.55;81.77;101841.56;4985493;28;20030;-93
2023/08/11 08:16:37;;;;;;;7.55;5.22;;;;;;;19.64;81.70;101834.16;4984366;28;20489;-95
2023/08/11 08:19:05;;;;;;;9.05;5.03;;;;;;;19.70;79.95;101834.69;4987985;28;20038;-91
2023/08/11 08:21:31;;;;;;;8.63;4.90;;;;;;;19.80;82.14;101839.50;4985808;28;20092;-93
2023/08/11 08:23:56;;;;;;;6.45;4.50;;;;;;;19.86;80.32;101840.06;4985722;28;20038;-93
2023/08/11 08:26:21;;;;;;;7.10;4.57;;;;;;;19.94;78.33;101836.25;4984025;28;20029;-95
2023/08/11 08:28:47;;;;;;;8.18;4.30;;;;;;;19.98;75.91;101832.53;4984308;28;20033;-94
2023/08/11 08:31:13;;;;;;;7.15;4.60;;;;;;;20.04;76.27;101837.47;4987714;28;20030;-94
2023/08/11 08:33:38;;;;;;;6.53;4.05;;;;;;;20.11;75.45;101836.25;4984317;28;20169;-92
2023/08/11 08:36:03;;;;;;;5.47;3.90;;;;;;;20.20;76.77;101834.94;4986829;28;20037;-93
2023/08/11 08:38:28;;;;;;;5.90;4.07;;;;;;;20.29;77.98;101836.25;4968186;28;20034;-94
2023/08/11 08:40:54;;;;;;;5.95;3.60;;;;;;;20.34;74.55;101838.66;4986363;28;20045;-92
2023/08/11 08:43:20;;;;;;;5.90;3.88;;;;;;;20.40;75.56;101839.19;4988172;28;20038;-92
2023/08/11 08:45:50;;;;;;;6.25;4.43;;;;;;;20.48;76.38;101841.44;4984422;28;20026;-94
2023/08/11 08:48:31;;;;;;;6.72;3.55;;;;;;;20.55;75.09;101834.03;4986538;28;20034;-94
2023/08/11 08:50:56;;;;;;;5.95;3.83;;;;;;;20.63;76.69;101834.50;4990762;28;20030;-94
2023/08/11 08:53:22;;;;;;;5.07;3.10;;;;;;;20.70;73.19;101833.22;4993112;28;20109;-94
2023/08/11 08:55:47;;;;;;;5.57;3.08;;;;;;;20.77;73.34;101829.38;4999608;28;20034;-93
2023/08/11 08:58:14;;;;;;;5.32;2.92;;;;;;;20.84;71.99;101829.03;5008719;28;20097;-96
2023/08/11 09:00:40;;;;;;;4.57;2.63;;;;;;;20.92;72.83;101829.47;4976921;28;20113;-94
2023/08/11 09:03:06;;;;;;;6.40;2.92;;;;;;;20.99;70.42;101830.00;4990522;28;20114;-93
2023/08/11 09:05:32;;;;;;;4.00;2.75;;;;;;;21.06;71.55;101826.94;4989550;28;20026;-94
2023/08/11 09:07:57;;;;;;;4.35;2.70;;;;;;;21.14;71.17;101831.81;4991999;28;20041;-92
2023/08/11 09:10:24;;;;;;;4.32;2.83;;;;;;;21.20;70.31;101833.25;4989861;28;20018;-95
2023/08/11 09:12:50;;;;;;;3.92;2.90;;;;;;;21.29;70.42;101826.59;4998191;28;20033;-92
2023/08/11 09:15:15;;;;;;;4.38;2.72;;;;;;;21.38;71.29;101832.22;4988989;28;20022;-94
2023/08/11 09:17:41;;;;;;;4.75;2.78;;;;;;;21.47;69.65;101824.72;4990408;28;20034;-92
2023/08/11 09:20:10;;;;;;;3.90;2.63;;;;;;;21.55;69.26;101821.66;4986813;28;20038;-93
2023/08/11 09:22:37;;;;;;;4.00;2.60;;;;;;;21.63;69.81;101830.91;4988354;28;20076;-92
2023/08/11 09:25:03;;;;;;;4.20;2.65;;;;;;;21.71;70.10;101832.22;4985464;28;20022;-95
2023/08/11 09:27:29;;;;;;;3.80;2.45;;;;;;;21.71;66.58;101827.81;4985225;28;20039;-91
2023/08/11 09:29:56;;;;;;;3.90;2.70;;;;;;;21.75;68.18;101826.69;4987859;28;20127;-91
2023/08/11 09:32:22;;;;;;;4.45;2.35;;;;;;;21.83;68.00;101831.56;4986403;28;20034;-90
2023/08/11 09:34:48;;;;;;;4.80;2.45;;;;;;;21.92;68.02;101825.69;4986452;28;20129;-93
2023/08/11 09:37:13;;;;;;;4.50;2.70;;;;;;;22.01;65.74;101828.78;4989258;28;20055;-91
2023/08/11 09:39:40;;;;;;;3.58;2.30;;;;;;;22.09;65.81;101821.22;4987862;28;20030;-91
2023/08/11 09:42:05;;;;;;;4.22;2.80;;;;;;;22.21;69.28;101825.78;4988590;28;20459;-92
2023/08/11 09:44:31;;;;;;;4.05;2.70;;;;;;;22.31;67.28;101818.13;4986207;28;20018;-91
2023/08/11 09:46:56;;;;;;;2.78;2.30;;;;;;;22.39;65.67;101823.84;4981997;28;20026;-92
2023/08/11 09:49:21;;;;;;;5.00;2.60;;;;;;;22.48;65.61;101822.47;4985170;28;20113;-92
2023/08/11 09:51:48;;;;;;;4.75;2.63;;;;;;;22.60;65.96;101820.88;4985689;28;20015;-92
2023/08/11 09:54:15;;;;;;;3.20;2.17;;;;;;;22.70;65.36;101810.53;4985616;28;20119;-92
2023/08/11 09:56:42;;;;;;;3.88;2.33;;;;;;;22.81;65.00;101821.31;4983975;28;20023;-89
2023/08/11 09:59:20;;;;;;;4.70;2.28;;;;;;;22.89;65.15;101820.84;4986911;28;20477;-91
2023/08/11 10:01:47;;;;;;;3.60;2.22;;;;;;;22.97;63.35;101818.53;4984550;28;20041;-92
2023/08/11 10:04:38;;;;;;;5.22;2.38;;;;;;;23.03;64.25;101820.00;4988640;28;20598;-90
2023/08/11 10:07:07;;;;;;;;;;;;;;;23.05;65.83;101818.09;4988024;28;20113;-90
2023/08/11 10:09:34;;;;;;;4.22;1.98;;;;;;;23.08;63.14;101820.53;4990674;28;20292;-89
2023/08/11 10:12:01;;;;;;;3.65;2.00;;;;;;;23.09;62.50;101822.22;4988682;28;20034;-90
2023/08/11 10:14:28;;;;;;;4.22;2.10;;;;;;;23.11;64.83;101817.69;4970735;28;20041;-87
2023/08/11 10:16:54;;;;;;;3.20;2.20;;;;;;;23.15;64.84;101819.19;4985770;28;20035;-90
2023/08/11 10:19:20;;;;;;;3.92;2.05;;;;;;;23.18;63.33;101826.97;4990231;28;20105;-88
2023/08/11 10:21:45;;;;;;;5.18;2.35;;;;;;;23.18;63.92;101821.66;4990483;28;20028;-87
2023/08/11 10:24:11;;;;;;;2.70;1.90;;;;;;;23.20;63.24;101834.81;4988893;28;20034;-87
2023/08/11 10:26:37;;;;;;;2.63;1.85;;;;;;;23.26;66.31;101818.53;4988722;28;20106;-88
2023/08/11 10:29:03;;;;;;;3.85;2.60;;;;;;;23.32;65.98;101822.59;4988051;28;20109;-87
2023/08/11 10:31:32;;;;;;;3.60;2.25;;;;;;;23.33;62.75;101808.38;4986253;28;20497;-88
2023/08/11 10:33:58;;;;;;;3.20;2.03;;;;;;;23.36;64.87;101808.19;4987041;28;20150;-88
2023/08/11 10:36:26;;;;;;;3.15;2.17;;;;;;;23.37;62.34;101807.25;4987919;28;20030;-87
2023/08/11 10:39:05;;;;;;;4.20;2.20;;;;;;;23.42;66.93;101802.47;4987078;28;20041;-87
2023/08/11 10:41:32;;;;;;;4.65;2.20;;;;;;;23.47;63.29;101810.97;4986264;28;20054;-89
2023/08/11 10:43:58;;;;;;;3.70;2.30;;;;;;;23.51;64.24;101800.16;4985047;28;20026;-89
2023/08/11 10:46:24;;;;;;;4.05;2.35;;;;;;;23.55;64.87;101807.00;4987350;28;20045;-87
2023/08/11 10:48:51;;;;;;;3.58;2.13;;;;;;;23.57;66.63;101802.44;4985877;28;20037;-88
2023/08/11 10:51:31;;;;;;;5.78;2.13;;;;;;;23.60;65.14;101803.06;4985618;28;20057;-90
2023/08/11 10:54:06;;;;;;;3.85;2.03;;;;;;;23.63;66.46;101804.66;4987707;28;20030;-90
2023/08/11 10:56:33;;;;;;;3.30;2.10;;;;;;;23.68;64.10;101802.56;4987631;28;20117;-89
2023/08/11 10:59:24;;;;;;;3.83;2.20;;;;;;;23.71;63.56;101807.69;4986937;28;20030;-90
2023/08/11 11:01:51;;;;;;;3.60;2.13;;;;;;;23.74;63.38;101802.13;4987645;28;20042;-89
2023/08/11 11:04:18;;;;;;;3.40;1.77;;;;;;;23.80;65.10;101804.41;4986658;28;20034;-90
2023/08/11 11:06:45;;;;;;;2.95;2.10;;;;;;;23.84;62.72;101807.69;4968046;28;20444;-93
2023/08/11 11:09:11;;;;;;;3.95;2.22;;;;;;;23.86;62.87;101810.25;4987259;28;20041;-90
2023/08/11 11:11:37;;;;;;;4.03;2.00;;;;;;;23.90;61.32;101801.13;4988585;28;20026;-89
2023/08/11 11:14:04;;;;;;;2.33;1.90;;;;;;;23.96;63.33;101808.69;4986924;28;20498;-88
2023/08/11 11:16:30;;;;;;;2.72;2.00;;;;;;;24.01;61.85;101798.63;4987489;28;20042;-90
2023/08/11 11:18:56;;;;;;;3.03;2.10;;;;;;;24.05;60.22;101792.16;4987091;28;20045;-92